createdAt,value
2024-01-26T00:01:15.003Z,60.40
2024-01-26T00:03:42.771Z,59.50
2024-01-26T00:06:10.364Z,62.15
2024-01-26T00:08:37.886Z,60.68
2024-01-26T00:11:05.548Z,61.65
2024-01-26T00:13:33.263Z,59.99
2024-01-26T00:16:00.694Z,61.57
2024-01-26T00:18:28.264Z,61.38
2024-01-26T00:20:55.663Z,60.28
2024-01-26T00:23:23.048Z,59.89
2024-01-26T00:25:50.511Z,60.30
2024-01-26T00:28:17.921Z,58.85
2024-01-26T00:30:45.530Z,58.37
2024-01-26T00:33:13.604Z,58.09
2024-01-26T00:35:41.156Z,59.19
2024-01-26T00:38:08.585Z,58.48
2024-01-26T00:40:35.982Z,57.45
2024-01-26T00:43:03.442Z,57.11
2024-01-26T00:45:30.885Z,58.21
2024-01-26T00:47:58.354Z,57.58
2024-01-26T00:50:26.600Z,57.91
2024-01-26T00:52:54.098Z,58.24
2024-01-26T00:55:21.570Z,57.89
2024-01-26T00:57:48.944Z,58.67
2024-01-26T01:00:17.899Z,58.18
2024-01-26T01:02:45.371Z,57.88
2024-01-26T01:05:12.849Z,59.43
2024-01-26T01:07:40.230Z,58.22
2024-01-26T01:10:09.033Z,58.62
2024-01-26T01:12:36.459Z,57.74
2024-01-26T01:15:05.417Z,57.35
2024-01-26T01:17:33.823Z,59.06
2024-01-26T01:20:01.329Z,59.43
2024-01-26T01:22:29.470Z,57.75
2024-01-26T01:24:56.892Z,57.68
2024-01-26T01:27:24.208Z,58.02
2024-01-26T01:29:51.869Z,61.09
2024-01-26T01:32:19.228Z,61.04
2024-01-26T01:34:46.610Z,59.62
2024-01-26T01:37:13.962Z,58.82
2024-01-26T01:39:41.381Z,57.43
2024-01-26T01:42:15.513Z,59.66
2024-01-26T01:44:47.261Z,58.22
2024-01-26T01:47:16.934Z,59.13
2024-01-26T01:49:45.844Z,57.71
2024-01-26T01:52:17.843Z,60.69
2024-01-26T01:54:46.126Z,59.87
2024-01-26T01:57:16.233Z,59.54
2024-01-26T01:59:43.589Z,60.17
2024-01-26T02:02:11.067Z,58.46
2024-01-26T02:04:38.858Z,59.02
2024-01-26T02:07:06.909Z,57.86
2024-01-26T02:09:34.439Z,59.88
2024-01-26T02:12:02.051Z,62.13
2024-01-26T02:14:29.531Z,60.47
2024-01-26T02:17:02.831Z,63.07
2024-01-26T02:19:33.843Z,61.40
2024-01-26T02:22:01.206Z,60.61
2024-01-26T02:24:28.538Z,60.73
2024-01-26T02:26:56.049Z,59.91
2024-01-26T02:29:23.479Z,59.52
2024-01-26T02:31:50.963Z,60.65
2024-01-26T02:34:18.719Z,65.52
2024-01-26T02:36:46.258Z,68.13
2024-01-26T02:39:13.633Z,67.00
2024-01-26T02:41:41.993Z,65.08
2024-01-26T02:44:10.743Z,63.69
2024-01-26T02:46:38.228Z,60.27
2024-01-26T02:49:07.517Z,62.70
2024-01-26T02:51:34.906Z,60.94
2024-01-26T02:54:04.242Z,61.03
2024-01-26T02:56:31.757Z,60.88
2024-01-26T02:58:59.171Z,61.20
2024-01-26T03:01:26.806Z,65.53
2024-01-26T03:03:54.570Z,67.49
2024-01-26T03:06:22.089Z,67.03
2024-01-26T03:08:49.716Z,65.17
2024-01-26T03:11:17.138Z,64.67
2024-01-26T03:13:44.464Z,63.27
2024-01-26T03:16:12.640Z,62.29
2024-01-26T03:18:40.241Z,65.04
2024-01-26T03:21:07.715Z,63.38
2024-01-26T03:23:35.276Z,61.93
2024-01-26T03:26:02.633Z,64.65
2024-01-26T03:28:31.240Z,66.33
2024-01-26T03:30:58.624Z,67.72
2024-01-26T03:33:26.231Z,66.98
2024-01-26T03:35:56.627Z,67.57
2024-01-26T03:38:24.142Z,68.51
2024-01-26T03:40:51.461Z,66.72
2024-01-26T03:43:19.181Z,64.75
2024-01-26T03:45:46.515Z,64.81
2024-01-26T03:48:15.363Z,64.34
2024-01-26T03:50:42.830Z,64.64
2024-01-26T03:53:10.272Z,65.22
2024-01-26T03:55:39.146Z,66.75
2024-01-26T03:58:06.563Z,67.93
2024-01-26T04:00:34.040Z,68.28
2024-01-26T04:03:02.125Z,68.38
2024-01-26T04:05:29.515Z,66.86
2024-01-26T04:07:56.982Z,65.81
2024-01-26T04:10:24.417Z,65.47
2024-01-26T04:12:51.780Z,64.77
2024-01-26T04:15:20.331Z,64.92
2024-01-26T04:17:47.820Z,64.49
2024-01-26T04:20:15.911Z,63.10
2024-01-26T04:22:44.350Z,63.67
2024-01-26T04:25:12.757Z,64.23
2024-01-26T04:27:40.157Z,64.33
2024-01-26T04:30:08.662Z,64.99
2024-01-26T04:32:38.180Z,65.35
2024-01-26T04:35:06.514Z,63.75
2024-01-26T04:37:34.197Z,68.32
2024-01-26T04:40:01.594Z,69.30
2024-01-26T04:42:29.082Z,68.04
2024-01-26T04:44:57.753Z,66.94
2024-01-26T04:47:25.344Z,66.23
2024-01-26T04:49:52.913Z,64.95
2024-01-26T04:52:20.318Z,63.92
2024-01-26T04:54:48.459Z,63.49
2024-01-26T04:57:16.134Z,63.41
2024-01-26T04:59:43.631Z,61.70
2024-01-26T05:02:11.203Z,61.93
2024-01-26T05:04:38.616Z,60.69
2024-01-26T05:07:06.284Z,62.26
2024-01-26T05:09:33.899Z,67.23
2024-01-26T05:12:01.491Z,65.63
2024-01-26T05:14:28.936Z,67.34
2024-01-26T05:16:56.338Z,65.61
2024-01-26T05:19:23.775Z,64.56
2024-01-26T05:21:51.240Z,65.99
2024-01-26T05:24:18.621Z,66.57
2024-01-26T05:26:46.618Z,62.69
2024-01-26T05:29:16.168Z,62.64
2024-01-26T05:31:43.682Z,63.22
2024-01-26T05:34:11.252Z,63.01
2024-01-26T05:36:43.391Z,64.38
2024-01-26T05:39:12.043Z,63.03
2024-01-26T05:41:39.892Z,62.96
2024-01-26T05:44:08.050Z,64.47
2024-01-26T05:46:35.561Z,65.27
2024-01-26T05:49:06.399Z,64.80
2024-01-26T05:51:35.642Z,64.33
2024-01-26T05:54:03.603Z,66.33
2024-01-26T05:56:31.028Z,64.63
2024-01-26T05:58:58.570Z,64.39
2024-01-26T06:01:26.491Z,65.70
2024-01-26T06:03:53.976Z,66.50
2024-01-26T06:06:21.507Z,64.18
2024-01-26T06:08:49.482Z,65.18
2024-01-26T06:11:18.631Z,63.78
2024-01-26T06:13:46.340Z,66.83
2024-01-26T06:16:16.816Z,65.63
2024-01-26T06:18:45.662Z,64.95
2024-01-26T06:21:13.728Z,64.98
2024-01-26T06:23:42.987Z,65.00
2024-01-26T06:26:10.446Z,65.82
2024-01-26T06:28:37.856Z,65.28
2024-01-26T06:31:05.325Z,65.89
2024-01-26T06:33:32.961Z,66.14
2024-01-26T06:36:00.491Z,64.88
2024-01-26T06:38:28.247Z,66.43
2024-01-26T06:40:55.858Z,64.84
2024-01-26T06:43:23.413Z,63.22
2024-01-26T06:45:50.763Z,62.49
2024-01-26T06:48:18.354Z,61.37
2024-01-26T06:50:46.042Z,62.23
2024-01-26T06:53:13.563Z,62.73
2024-01-26T06:55:42.313Z,62.04
2024-01-26T06:58:09.757Z,61.38
2024-01-26T07:00:37.211Z,60.43
2024-01-26T07:03:11.600Z,60.39
2024-01-26T07:05:40.654Z,62.84
2024-01-26T07:08:09.330Z,64.96
2024-01-26T07:10:36.782Z,64.55
2024-01-26T07:13:04.604Z,63.43
2024-01-26T07:15:33.097Z,60.91
2024-01-26T07:18:00.571Z,61.89
2024-01-26T07:20:29.494Z,61.93
2024-01-26T07:22:57.383Z,62.00
2024-01-26T07:25:24.753Z,61.74
2024-01-26T07:27:52.142Z,61.15
2024-01-26T07:30:20.534Z,60.99
2024-01-26T07:32:48.085Z,61.77
2024-01-26T07:35:15.771Z,59.35
2024-01-26T07:37:43.261Z,61.32
2024-01-26T07:40:11.605Z,61.37
2024-01-26T07:42:39.130Z,60.04
2024-01-26T07:45:06.923Z,62.02
2024-01-26T07:47:36.678Z,60.53
2024-01-26T07:50:08.001Z,61.27
2024-01-26T07:52:35.341Z,61.73
2024-01-26T07:55:02.691Z,61.31
2024-01-26T07:57:30.065Z,60.76
2024-01-26T07:59:57.621Z,60.54
2024-01-26T08:02:25.392Z,59.43
2024-01-26T08:04:55.729Z,60.08
2024-01-26T08:07:23.813Z,59.75
2024-01-26T08:09:51.480Z,58.97
2024-01-26T08:12:29.343Z,59.44
2024-01-26T08:17:36.000Z,60.52
2024-01-26T08:20:05.144Z,63.05
2024-01-26T08:22:34.097Z,61.92
2024-01-26T08:25:02.137Z,60.67
2024-01-26T08:27:29.979Z,60.11
2024-01-26T08:29:57.686Z,62.71
2024-01-26T08:32:25.185Z,60.46
2024-01-26T08:34:52.954Z,60.25
2024-01-26T08:37:20.809Z,59.32
2024-01-26T08:39:48.367Z,60.80
2024-01-26T08:42:16.085Z,61.19
2024-01-26T08:44:43.908Z,59.78
2024-01-26T08:47:11.332Z,60.49
2024-01-26T08:49:39.035Z,58.38
2024-01-26T08:52:07.091Z,58.34
2024-01-26T08:54:34.507Z,59.99
2024-01-26T08:57:02.151Z,59.07
2024-01-26T08:59:30.452Z,59.98
2024-01-26T09:01:57.892Z,58.43
2024-01-26T09:04:25.438Z,58.33
2024-01-26T09:06:59.959Z,59.47
2024-01-26T09:09:32.457Z,58.04
2024-01-26T09:12:00.079Z,58.08
2024-01-26T09:14:27.522Z,59.12
2024-01-26T09:16:54.987Z,58.07
2024-01-26T09:19:22.610Z,57.20
2024-01-26T09:21:52.680Z,59.79
2024-01-26T09:24:20.354Z,58.19
2024-01-26T09:26:47.928Z,59.51
2024-01-26T09:29:15.508Z,58.19
2024-01-26T09:31:43.042Z,57.56
2024-01-26T09:34:10.724Z,55.76
2024-01-26T09:36:38.221Z,57.75
2024-01-26T09:39:06.381Z,58.49
2024-01-26T09:41:34.117Z,59.86
2024-01-26T09:44:01.674Z,58.05
2024-01-26T09:46:32.304Z,59.86
2024-01-26T09:49:00.811Z,60.39
2024-01-26T09:51:29.058Z,59.38
2024-01-26T09:54:01.991Z,58.41
2024-01-26T09:56:33.219Z,57.64
2024-01-26T09:59:01.947Z,58.05
2024-01-26T10:01:30.119Z,57.96
2024-01-26T10:03:58.416Z,60.55
2024-01-26T10:06:26.464Z,62.97
2024-01-26T10:08:54.501Z,58.84
2024-01-26T10:11:21.922Z,57.19
2024-01-26T10:13:49.456Z,57.27
2024-01-26T10:16:16.866Z,57.21
2024-01-26T10:18:48.233Z,56.63
2024-01-26T10:21:18.694Z,58.18
2024-01-26T10:23:48.210Z,58.53
2024-01-26T10:26:15.875Z,57.43
2024-01-26T10:28:44.816Z,57.68
2024-01-26T10:31:12.537Z,58.61
2024-01-26T10:33:46.718Z,57.85
2024-01-26T10:36:17.140Z,58.06
2024-01-26T10:38:52.251Z,57.61
2024-01-26T10:41:22.800Z,58.28
2024-01-26T10:43:55.127Z,57.66
2024-01-26T10:46:24.143Z,58.65
2024-01-26T10:48:53.895Z,60.26
2024-01-26T10:51:23.372Z,57.34
2024-01-26T10:53:52.017Z,58.30
2024-01-26T10:56:19.487Z,58.11
2024-01-26T10:58:46.976Z,58.73
2024-01-26T11:01:15.525Z,59.68
2024-01-26T11:03:44.597Z,58.27
2024-01-26T11:06:15.117Z,58.53
2024-01-26T11:08:43.099Z,58.22
2024-01-26T11:11:11.345Z,59.48
2024-01-26T11:13:39.199Z,59.62
2024-01-26T11:16:08.555Z,58.50
2024-01-26T11:18:38.930Z,57.44
2024-01-26T11:21:06.747Z,56.43
2024-01-26T11:23:46.677Z,57.86
2024-01-26T11:26:18.695Z,57.46
2024-01-26T11:28:47.985Z,57.96
2024-01-26T11:31:15.600Z,56.87
2024-01-26T11:33:43.326Z,59.84
2024-01-26T11:36:14.474Z,57.06
2024-01-26T11:38:44.095Z,57.15
2024-01-26T11:41:12.717Z,58.27
2024-01-26T11:43:48.733Z,57.59
2024-01-26T11:46:18.463Z,59.13
2024-01-26T11:48:46.080Z,57.59
2024-01-26T11:51:15.543Z,57.20
2024-01-26T11:53:43.448Z,58.13
2024-01-26T11:56:11.114Z,57.12
2024-01-26T11:58:41.350Z,58.79
2024-01-26T12:01:09.028Z,57.82
2024-01-26T12:03:37.127Z,57.32
2024-01-26T12:06:05.632Z,58.12
2024-01-26T12:08:33.417Z,58.43
2024-01-26T12:11:02.240Z,58.36
2024-01-26T12:13:29.969Z,59.15
2024-01-26T12:15:59.084Z,59.32
2024-01-26T12:18:26.679Z,59.14
2024-01-26T12:20:54.304Z,60.28
2024-01-26T12:23:22.590Z,59.33
2024-01-26T12:25:56.263Z,59.65
2024-01-26T12:28:28.817Z,59.13
2024-01-26T12:30:56.429Z,60.73
2024-01-26T12:33:25.116Z,60.27
2024-01-26T12:35:56.829Z,62.93
2024-01-26T12:38:24.499Z,62.55
2024-01-26T12:40:51.958Z,62.98
2024-01-26T12:43:19.519Z,62.69
2024-01-26T12:45:55.874Z,62.01
2024-01-26T12:48:23.431Z,63.72
2024-01-26T12:50:51.033Z,61.72
2024-01-26T12:53:20.276Z,61.20
2024-01-26T12:55:48.749Z,61.94
2024-01-26T12:58:18.695Z,61.56
2024-01-26T13:00:46.211Z,61.78
2024-01-26T13:03:13.584Z,61.88
2024-01-26T13:05:41.091Z,62.62
2024-01-26T13:08:08.637Z,62.69
2024-01-26T13:10:37.123Z,61.93
2024-01-26T13:13:04.919Z,63.09
2024-01-26T13:18:00.905Z,63.07
2024-01-26T13:20:28.991Z,62.57
2024-01-26T13:22:56.569Z,63.54
2024-01-26T13:25:24.062Z,64.23
2024-01-26T13:27:51.592Z,62.69
2024-01-26T13:30:19.432Z,63.97
2024-01-26T13:32:49.604Z,64.12
2024-01-26T13:35:17.466Z,64.42
2024-01-26T13:37:45.419Z,64.37
2024-01-26T13:40:13.138Z,65.60
2024-01-26T13:42:43.140Z,66.28
2024-01-26T13:45:14.104Z,63.47
2024-01-26T13:47:44.601Z,63.76
2024-01-26T13:50:16.481Z,63.33
2024-01-26T13:52:43.987Z,64.95
2024-01-26T13:55:12.196Z,64.47
2024-01-26T13:57:44.197Z,64.87
2024-01-26T14:00:21.140Z,66.11
2024-01-26T14:02:52.558Z,66.31
2024-01-26T14:05:21.473Z,66.03
2024-01-26T14:07:51.115Z,66.50
2024-01-26T14:10:20.269Z,66.16
2024-01-26T14:12:47.662Z,65.15
2024-01-26T14:15:16.728Z,66.19
2024-01-26T14:17:48.496Z,65.91
2024-01-26T14:20:18.720Z,64.52
2024-01-26T14:22:46.125Z,65.16
2024-01-26T14:25:13.540Z,65.61
2024-01-26T14:27:41.081Z,66.03
2024-01-26T14:30:13.005Z,66.51
2024-01-26T14:32:40.600Z,66.73
2024-01-26T14:35:12.209Z,65.56
2024-01-26T14:37:44.451Z,67.29
2024-01-26T14:40:18.928Z,66.83
2024-01-26T14:42:49.141Z,66.67
2024-01-26T14:45:16.770Z,66.58
2024-01-26T14:47:47.715Z,67.29
2024-01-26T14:50:17.413Z,66.23
2024-01-26T14:52:44.903Z,66.81
2024-01-26T14:55:15.842Z,65.75
2024-01-26T14:57:46.767Z,65.31
2024-01-26T15:00:17.590Z,64.49
2024-01-26T15:02:45.520Z,66.81
2024-01-26T15:05:13.231Z,69.51
2024-01-26T15:07:43.230Z,70.77
2024-01-26T15:10:13.644Z,67.16
2024-01-26T15:12:41.144Z,69.64
2024-01-26T15:15:09.606Z,67.78
2024-01-26T15:17:37.203Z,67.54
2024-01-26T15:20:10.733Z,66.98
2024-01-26T15:22:38.341Z,66.04
2024-01-26T15:25:06.562Z,65.57
2024-01-26T15:27:34.098Z,63.38
2024-01-26T15:30:01.510Z,64.27
2024-01-26T15:32:32.369Z,62.55
2024-01-26T15:35:00.026Z,62.81
2024-01-26T15:37:27.448Z,64.25
2024-01-26T15:39:54.928Z,63.90
2024-01-26T15:42:22.958Z,66.18
2024-01-26T15:44:50.641Z,63.78
2024-01-26T15:47:18.438Z,63.59
2024-01-26T15:49:46.022Z,66.04
2024-01-26T15:52:13.469Z,63.25
2024-01-26T15:54:40.816Z,66.05
2024-01-26T15:57:09.170Z,62.48
2024-01-26T15:59:36.722Z,61.63
2024-01-26T16:02:04.532Z,63.29
2024-01-26T16:04:32.056Z,65.39
2024-01-26T16:06:59.518Z,63.13
2024-01-26T16:09:26.936Z,64.28
2024-01-26T16:11:54.485Z,62.35
2024-01-26T16:14:21.974Z,62.10
2024-01-26T16:16:49.389Z,61.82
2024-01-26T16:19:17.048Z,62.65
2024-01-26T16:21:44.431Z,62.95
2024-01-26T16:24:12.083Z,64.83
2024-01-26T16:26:39.949Z,61.63
2024-01-26T16:29:08.947Z,61.09
2024-01-26T16:31:37.305Z,63.63
2024-01-26T16:34:06.432Z,62.42
2024-01-26T16:36:35.360Z,63.24
2024-01-26T16:39:06.071Z,61.94
2024-01-26T16:41:37.996Z,62.02
2024-01-26T16:44:05.729Z,61.56
2024-01-26T16:46:33.402Z,60.00
2024-01-26T16:49:00.869Z,62.56
2024-01-26T16:51:30.193Z,63.67
2024-01-26T16:53:57.690Z,65.06
2024-01-26T16:56:25.176Z,62.98
2024-01-26T16:58:52.517Z,59.62
2024-01-26T17:01:21.225Z,62.14
2024-01-26T17:03:48.640Z,62.96
2024-01-26T17:06:16.416Z,62.27
2024-01-26T17:08:43.823Z,64.10
2024-01-26T17:11:11.705Z,64.44
2024-01-26T17:13:39.159Z,63.48
2024-01-26T17:16:08.840Z,64.60
2024-01-26T17:18:37.741Z,62.80
2024-01-26T17:21:07.238Z,63.96
2024-01-26T17:23:37.483Z,61.42
2024-01-26T17:26:05.616Z,63.50
2024-01-26T17:28:33.138Z,62.27
2024-01-26T17:31:00.682Z,65.06
2024-01-26T17:33:28.223Z,61.77
2024-01-26T17:35:55.833Z,61.78
2024-01-26T17:38:23.422Z,63.34
2024-01-26T17:40:50.760Z,62.00
2024-01-26T17:43:18.126Z,63.00
2024-01-26T17:45:45.626Z,65.37
2024-01-26T17:48:13.416Z,65.07
2024-01-26T17:50:41.087Z,63.18
2024-01-26T17:53:08.643Z,64.22
2024-01-26T17:55:41.028Z,61.60
2024-01-26T17:58:10.631Z,60.22
2024-01-26T18:00:39.635Z,61.37
2024-01-26T18:03:08.850Z,61.68
2024-01-26T18:05:36.483Z,59.71
2024-01-26T18:08:04.267Z,59.68
2024-01-26T18:10:31.868Z,59.76
2024-01-26T18:12:59.386Z,58.06
2024-01-26T18:15:26.875Z,56.63
2024-01-26T18:17:54.486Z,57.10
2024-01-26T18:20:22.341Z,59.05
2024-01-26T18:22:49.831Z,58.12
2024-01-26T18:25:17.623Z,59.50
2024-01-26T18:27:45.169Z,59.63
2024-01-26T18:30:13.894Z,59.95
2024-01-26T18:32:41.587Z,57.78
2024-01-26T18:35:11.069Z,58.99
2024-01-26T18:37:38.943Z,58.49
2024-01-26T18:40:10.390Z,57.93
2024-01-26T18:42:37.963Z,56.45
2024-01-26T18:45:06.787Z,57.84
2024-01-26T18:47:34.184Z,58.21
2024-01-26T18:50:01.859Z,58.59
2024-01-26T18:52:30.858Z,57.96
2024-01-26T18:54:58.162Z,58.13
2024-01-26T18:57:25.570Z,56.39
2024-01-26T18:59:53.857Z,56.31
2024-01-26T19:02:21.650Z,58.17
2024-01-26T19:04:49.452Z,56.51
2024-01-26T19:07:17.024Z,56.39
2024-01-26T19:09:44.481Z,56.67
2024-01-26T19:12:12.028Z,55.34
2024-01-26T19:14:39.877Z,56.20
2024-01-26T19:17:08.919Z,55.89
2024-01-26T19:19:40.082Z,57.33
2024-01-26T19:22:07.792Z,57.58
2024-01-26T19:24:35.916Z,55.78
2024-01-26T19:27:05.962Z,57.60
2024-01-26T19:29:36.252Z,55.96
2024-01-26T19:32:04.410Z,56.18
2024-01-26T19:34:33.195Z,56.03
2024-01-26T19:37:02.706Z,56.84
2024-01-26T19:39:30.282Z,56.81
2024-01-26T19:41:58.656Z,55.49
2024-01-26T19:44:26.055Z,57.20
2024-01-26T19:46:53.578Z,57.94
2024-01-26T19:49:21.732Z,56.55
2024-01-26T19:51:52.451Z,58.66
2024-01-26T19:54:20.033Z,59.44
2024-01-26T19:56:47.537Z,57.88
2024-01-26T19:59:15.350Z,55.02
2024-01-26T20:01:43.785Z,54.53
2024-01-26T20:04:11.603Z,56.04
2024-01-26T20:06:39.419Z,55.71
2024-01-26T20:09:07.625Z,53.95
2024-01-26T20:11:36.402Z,57.30
2024-01-26T20:14:03.963Z,54.48
2024-01-26T20:16:31.642Z,55.47
2024-01-26T20:18:59.197Z,55.08
2024-01-26T20:21:26.968Z,57.06
2024-01-26T20:23:55.481Z,58.14
2024-01-26T20:26:24.648Z,56.29
2024-01-26T20:28:52.522Z,56.86
2024-01-26T20:31:21.617Z,55.12
2024-01-26T20:33:49.254Z,55.16
2024-01-26T20:36:17.246Z,56.47
2024-01-26T20:38:46.111Z,56.67
2024-01-26T20:41:13.726Z,57.25
2024-01-26T20:43:41.371Z,59.50
2024-01-26T20:46:10.235Z,60.55
2024-01-26T20:48:39.155Z,57.42
2024-01-26T20:51:06.831Z,59.92
2024-01-26T20:53:34.531Z,59.79
2024-01-26T20:56:01.990Z,58.68
2024-01-26T20:58:29.537Z,60.76
2024-01-26T21:00:58.040Z,59.53
2024-01-26T21:03:25.687Z,60.17
2024-01-26T21:05:53.346Z,58.42
2024-01-26T21:08:21.046Z,58.66
2024-01-26T21:10:50.107Z,59.38
2024-01-26T21:13:18.229Z,59.49
2024-01-26T21:15:46.595Z,57.03
2024-01-26T21:18:16.881Z,59.00
2024-01-26T21:20:44.734Z,58.32
2024-01-26T21:23:12.189Z,57.24
2024-01-26T21:25:39.866Z,62.42
2024-01-26T21:28:07.813Z,58.68
2024-01-26T21:30:35.577Z,57.01
2024-01-26T21:33:05.749Z,55.66
2024-01-26T21:35:33.511Z,59.55
2024-01-26T21:38:01.041Z,57.28
2024-01-26T21:40:28.604Z,58.50
2024-01-26T21:42:56.114Z,56.78
2024-01-26T21:45:25.096Z,55.69
2024-01-26T21:47:52.833Z,56.61
2024-01-26T21:50:20.560Z,55.54
2024-01-26T21:52:50.014Z,58.26
2024-01-26T21:55:17.964Z,57.84
2024-01-26T21:57:45.392Z,56.00
2024-01-26T22:00:14.521Z,57.56
2024-01-26T22:02:42.034Z,56.14
2024-01-26T22:05:13.162Z,56.99
2024-01-26T22:07:41.082Z,56.30
2024-01-26T22:10:09.567Z,58.12
2024-01-26T22:12:37.087Z,56.99
2024-01-26T22:15:06.312Z,59.35
2024-01-26T22:17:34.482Z,57.30
2024-01-26T22:20:02.550Z,56.96
2024-01-26T22:22:30.019Z,57.52
2024-01-26T22:24:58.113Z,56.60
2024-01-26T22:27:25.693Z,55.68
2024-01-26T22:29:56.800Z,55.60
2024-01-26T22:32:24.427Z,58.13
2024-01-26T22:34:52.314Z,56.16
2024-01-26T22:37:19.924Z,54.68
2024-01-26T22:39:50.381Z,56.31
2024-01-26T22:42:17.888Z,59.38
2024-01-26T22:44:45.339Z,55.85
2024-01-26T22:47:12.747Z,55.79
2024-01-26T22:49:40.241Z,54.61
2024-01-26T22:52:07.934Z,55.75
2024-01-26T22:54:35.322Z,53.64
2024-01-26T22:57:03.695Z,56.95
2024-01-26T22:59:31.162Z,55.66
2024-01-26T23:01:58.468Z,54.86
2024-01-26T23:04:25.969Z,55.53
2024-01-26T23:06:53.549Z,56.91
2024-01-26T23:09:21.169Z,56.80
2024-01-26T23:11:48.704Z,56.22
2024-01-26T23:14:16.177Z,56.22
2024-01-26T23:16:43.697Z,56.14
2024-01-26T23:19:11.410Z,56.44
2024-01-26T23:21:38.868Z,56.07
2024-01-26T23:24:08.142Z,56.77
2024-01-26T23:26:35.569Z,56.31
2024-01-26T23:29:02.929Z,56.74
2024-01-26T23:31:30.442Z,55.86
2024-01-26T23:33:57.976Z,55.76
2024-01-26T23:36:25.571Z,57.03
2024-01-26T23:38:54.099Z,55.20
2024-01-26T23:41:21.539Z,56.88
2024-01-26T23:43:48.964Z,55.63
2024-01-26T23:46:16.953Z,57.18
2024-01-26T23:48:44.662Z,56.30
2024-01-26T23:51:12.434Z,57.06
2024-01-26T23:53:39.795Z,56.41
2024-01-26T23:56:07.664Z,55.99
2024-01-26T23:58:35.021Z,56.60
